sensor_id;sensor_type;location;lat;lon;timestamp;P1;durP1;ratioP1;P2;durP2;ratioP2
37001;SDS011;22913;51.910;8.374;2022-12-29T00:00:52;1.50;;;1.40;;
37001;SDS011;22913;51.910;8.374;2022-12-29T00:03:38;1.30;;;1.30;;
37001;SDS011;22913;51.910;8.374;2022-12-29T00:06:23;1.47;;;1.47;;
37001;SDS011;22913;51.910;8.374;2022-12-29T00:09:10;1.80;;;1.33;;
37001;SDS011;22913;51.910;8.374;2022-12-29T00:11:56;1.53;;;1.43;;
37001;SDS011;22913;51.910;8.374;2022-12-29T00:14:42;2.27;;;1.50;;
37001;SDS011;22913;51.910;8.374;2022-12-29T00:17:46;1.40;;;1.30;;
37001;SDS011;22913;51.910;8.374;2022-12-29T00:20:32;2.00;;;1.63;;
37001;SDS011;22913;51.910;8.374;2022-12-29T00:23:36;1.60;;;1.50;;
37001;SDS011;22913;51.910;8.374;2022-12-29T00:26:40;1.60;;;1.40;;
37001;SDS011;22913;51.910;8.374;2022-12-29T00:29:43;1.50;;;1.40;;
37001;SDS011;22913;51.910;8.374;2022-12-29T00:32:47;6.17;;;1.50;;
37001;SDS011;22913;51.910;8.374;2022-12-29T00:35:52;1.40;;;1.30;;
37001;SDS011;22913;51.910;8.374;2022-12-29T00:38:40;2.10;;;1.50;;
37001;SDS011;22913;51.910;8.374;2022-12-29T00:41:46;1.03;;;1.03;;
37001;SDS011;22913;51.910;8.374;2022-12-29T00:44:49;1.30;;;1.20;;
37001;SDS011;22913;51.910;8.374;2022-12-29T00:47:35;2.30;;;1.30;;
37001;SDS011;22913;51.910;8.374;2022-12-29T00:50:22;1.13;;;1.10;;
37001;SDS011;22913;51.910;8.374;2022-12-29T00:53:07;1.30;;;1.30;;
37001;SDS011;22913;51.910;8.374;2022-12-29T00:55:52;1.40;;;1.30;;
37001;SDS011;22913;51.910;8.374;2022-12-29T00:58:38;2.47;;;1.30;;
37001;SDS011;22913;51.910;8.374;2022-12-29T01:01:24;1.10;;;1.10;;
37001;SDS011;22913;51.910;8.374;2022-12-29T01:04:09;1.57;;;1.37;;
37001;SDS011;22913;51.910;8.374;2022-12-29T01:06:57;1.10;;;1.10;;
37001;SDS011;22913;51.910;8.374;2022-12-29T01:09:42;1.10;;;1.10;;
37001;SDS011;22913;51.910;8.374;2022-12-29T01:12:45;1.50;;;1.07;;
37001;SDS011;22913;51.910;8.374;2022-12-29T01:15:30;1.30;;;1.20;;
37001;SDS011;22913;51.910;8.374;2022-12-29T01:18:16;1.03;;;1.03;;
37001;SDS011;22913;51.910;8.374;2022-12-29T01:21:03;1.30;;;1.20;;
37001;SDS011;22913;51.910;8.374;2022-12-29T01:23:51;1.03;;;1.03;;
37001;SDS011;22913;51.910;8.374;2022-12-29T01:26:37;1.20;;;1.20;;
37001;SDS011;22913;51.910;8.374;2022-12-29T01:29:22;0.83;;;0.83;;
37001;SDS011;22913;51.910;8.374;2022-12-29T01:32:08;1.10;;;1.10;;
37001;SDS011;22913;51.910;8.374;2022-12-29T01:34:54;1.00;;;1.00;;
37001;SDS011;22913;51.910;8.374;2022-12-29T01:37:39;0.90;;;0.90;;
37001;SDS011;22913;51.910;8.374;2022-12-29T01:40:26;0.93;;;0.93;;
37001;SDS011;22913;51.910;8.374;2022-12-29T01:43:12;0.80;;;0.80;;
37001;SDS011;22913;51.910;8.374;2022-12-29T01:45:58;0.97;;;0.97;;
37001;SDS011;22913;51.910;8.374;2022-12-29T01:48:44;0.80;;;0.80;;
37001;SDS011;22913;51.910;8.374;2022-12-29T01:51:32;0.80;;;0.80;;
37001;SDS011;22913;51.910;8.374;2022-12-29T01:54:21;0.90;;;0.90;;
37001;SDS011;22913;51.910;8.374;2022-12-29T01:57:12;0.80;;;0.80;;
37001;SDS011;22913;51.910;8.374;2022-12-29T02:00:01;1.00;;;1.00;;
37001;SDS011;22913;51.910;8.374;2022-12-29T02:02:50;0.80;;;0.80;;
37001;SDS011;22913;51.910;8.374;2022-12-29T02:05:37;0.90;;;0.90;;
37001;SDS011;22913;51.910;8.374;2022-12-29T02:08:26;0.97;;;0.97;;
37001;SDS011;22913;51.910;8.374;2022-12-29T02:11:13;0.70;;;0.70;;
37001;SDS011;22913;51.910;8.374;2022-12-29T02:14:04;0.80;;;0.80;;
37001;SDS011;22913;51.910;8.374;2022-12-29T02:16:57;1.00;;;1.00;;
37001;SDS011;22913;51.910;8.374;2022-12-29T02:20:05;1.30;;;0.90;;
37001;SDS011;22913;51.910;8.374;2022-12-29T02:23:14;0.90;;;0.90;;
37001;SDS011;22913;51.910;8.374;2022-12-29T02:26:27;0.83;;;0.83;;
37001;SDS011;22913;51.910;8.374;2022-12-29T02:29:38;1.40;;;0.70;;
37001;SDS011;22913;51.910;8.374;2022-12-29T02:32:45;0.60;;;0.60;;
37001;SDS011;22913;51.910;8.374;2022-12-29T02:35:40;0.90;;;0.90;;
37001;SDS011;22913;51.910;8.374;2022-12-29T02:38:42;0.93;;;0.93;;
37001;SDS011;22913;51.910;8.374;2022-12-29T02:41:37;0.70;;;0.70;;
37001;SDS011;22913;51.910;8.374;2022-12-29T02:44:31;2.30;;;0.80;;
37001;SDS011;22913;51.910;8.374;2022-12-29T02:47:23;0.70;;;0.70;;
37001;SDS011;22913;51.910;8.374;2022-12-29T02:50:19;1.30;;;0.70;;
37001;SDS011;22913;51.910;8.374;2022-12-29T02:53:11;0.70;;;0.70;;
37001;SDS011;22913;51.910;8.374;2022-12-29T02:56:00;0.80;;;0.80;;
37001;SDS011;22913;51.910;8.374;2022-12-29T02:58:44;0.67;;;0.67;;
37001;SDS011;22913;51.910;8.374;2022-12-29T03:01:34;0.50;;;0.50;;
37001;SDS011;22913;51.910;8.374;2022-12-29T03:08:04;0.60;;;0.60;;
37001;SDS011;22913;51.910;8.374;2022-12-29T03:10:59;0.60;;;0.60;;
37001;SDS011;22913;51.910;8.374;2022-12-29T03:13:48;0.73;;;0.73;;
37001;SDS011;22913;51.910;8.374;2022-12-29T03:16:55;0.63;;;0.63;;
37001;SDS011;22913;51.910;8.374;2022-12-29T03:19:46;0.60;;;0.60;;
37001;SDS011;22913;51.910;8.374;2022-12-29T03:22:36;0.50;;;0.50;;
37001;SDS011;22913;51.910;8.374;2022-12-29T03:25:29;0.70;;;0.70;;
37001;SDS011;22913;51.910;8.374;2022-12-29T03:28:17;0.87;;;0.60;;
37001;SDS011;22913;51.910;8.374;2022-12-29T03:31:06;0.60;;;0.60;;
37001;SDS011;22913;51.910;8.374;2022-12-29T03:33:53;0.60;;;0.60;;
37001;SDS011;22913;51.910;8.374;2022-12-29T03:36:42;0.70;;;0.67;;
37001;SDS011;22913;51.910;8.374;2022-12-29T03:39:32;0.70;;;0.70;;
37001;SDS011;22913;51.910;8.374;2022-12-29T03:42:20;2.93;;;0.80;;
37001;SDS011;22913;51.910;8.374;2022-12-29T03:45:10;0.50;;;0.50;;
37001;SDS011;22913;51.910;8.374;2022-12-29T03:47:56;0.50;;;0.50;;
37001;SDS011;22913;51.910;8.374;2022-12-29T03:50:42;0.77;;;0.70;;
37001;SDS011;22913;51.910;8.374;2022-12-29T03:53:27;0.60;;;0.60;;
37001;SDS011;22913;51.910;8.374;2022-12-29T03:56:13;0.90;;;0.67;;
37001;SDS011;22913;51.910;8.374;2022-12-29T03:59:00;0.63;;;0.60;;
37001;SDS011;22913;51.910;8.374;2022-12-29T04:01:46;0.50;;;0.50;;
37001;SDS011;22913;51.910;8.374;2022-12-29T04:04:31;0.73;;;0.73;;
37001;SDS011;22913;51.910;8.374;2022-12-29T04:07:17;0.67;;;0.67;;
37001;SDS011;22913;51.910;8.374;2022-12-29T04:10:03;0.70;;;0.70;;
37001;SDS011;22913;51.910;8.374;2022-12-29T04:12:49;0.70;;;0.70;;
37001;SDS011;22913;51.910;8.374;2022-12-29T04:15:36;0.60;;;0.60;;
37001;SDS011;22913;51.910;8.374;2022-12-29T04:18:22;3.43;;;0.60;;
37001;SDS011;22913;51.910;8.374;2022-12-29T04:21:08;0.80;;;0.80;;
37001;SDS011;22913;51.910;8.374;2022-12-29T04:23:53;0.63;;;0.63;;
37001;SDS011;22913;51.910;8.374;2022-12-29T04:26:39;0.93;;;0.80;;
37001;SDS011;22913;51.910;8.374;2022-12-29T04:29:26;0.73;;;0.70;;
37001;SDS011;22913;51.910;8.374;2022-12-29T04:32:13;0.67;;;0.67;;
37001;SDS011;22913;51.910;8.374;2022-12-29T04:34:59;0.60;;;0.60;;
37001;SDS011;22913;51.910;8.374;2022-12-29T04:37:44;0.80;;;0.70;;
37001;SDS011;22913;51.910;8.374;2022-12-29T04:40:30;1.07;;;0.70;;
37001;SDS011;22913;51.910;8.374;2022-12-29T04:43:16;1.03;;;0.53;;
37001;SDS011;22913;51.910;8.374;2022-12-29T04:46:03;0.97;;;0.80;;
37001;SDS011;22913;51.910;8.374;2022-12-29T04:48:50;0.80;;;0.80;;
37001;SDS011;22913;51.910;8.374;2022-12-29T04:51:36;0.70;;;0.70;;
37001;SDS011;22913;51.910;8.374;2022-12-29T04:54:22;2.57;;;1.00;;
37001;SDS011;22913;51.910;8.374;2022-12-29T04:57:08;0.90;;;0.90;;
37001;SDS011;22913;51.910;8.374;2022-12-29T04:59:54;0.70;;;0.70;;
37001;SDS011;22913;51.910;8.374;2022-12-29T05:02:40;0.70;;;0.70;;
37001;SDS011;22913;51.910;8.374;2022-12-29T05:05:27;0.90;;;0.90;;
37001;SDS011;22913;51.910;8.374;2022-12-29T05:08:13;0.87;;;0.83;;
37001;SDS011;22913;51.910;8.374;2022-12-29T05:10:59;0.80;;;0.80;;
37001;SDS011;22913;51.910;8.374;2022-12-29T05:13:45;2.70;;;0.80;;
37001;SDS011;22913;51.910;8.374;2022-12-29T05:16:31;0.83;;;0.77;;
37001;SDS011;22913;51.910;8.374;2022-12-29T05:19:17;2.13;;;0.87;;
37001;SDS011;22913;51.910;8.374;2022-12-29T05:22:04;1.87;;;0.73;;
37001;SDS011;22913;51.910;8.374;2022-12-29T05:24:50;1.07;;;0.70;;
37001;SDS011;22913;51.910;8.374;2022-12-29T05:27:36;1.43;;;0.90;;
37001;SDS011;22913;51.910;8.374;2022-12-29T05:30:22;0.73;;;0.70;;
37001;SDS011;22913;51.910;8.374;2022-12-29T05:33:07;0.93;;;0.70;;
37001;SDS011;22913;51.910;8.374;2022-12-29T05:35:55;0.70;;;0.70;;
37001;SDS011;22913;51.910;8.374;2022-12-29T05:38:42;0.80;;;0.80;;
37001;SDS011;22913;51.910;8.374;2022-12-29T05:41:28;0.60;;;0.60;;
37001;SDS011;22913;51.910;8.374;2022-12-29T05:44:14;0.73;;;0.67;;
37001;SDS011;22913;51.910;8.374;2022-12-29T05:46:59;0.80;;;0.80;;
37001;SDS011;22913;51.910;8.374;2022-12-29T05:49:45;0.90;;;0.70;;
37001;SDS011;22913;51.910;8.374;2022-12-29T05:52:31;0.70;;;0.70;;
37001;SDS011;22913;51.910;8.374;2022-12-29T05:55:18;0.83;;;0.83;;
37001;SDS011;22913;51.910;8.374;2022-12-29T05:58:04;1.03;;;0.93;;
37001;SDS011;22913;51.910;8.374;2022-12-29T06:00:50;0.70;;;0.70;;
37001;SDS011;22913;51.910;8.374;2022-12-29T06:03:36;0.60;;;0.60;;
37001;SDS011;22913;51.910;8.374;2022-12-29T06:06:22;0.80;;;0.77;;
37001;SDS011;22913;51.910;8.374;2022-12-29T06:09:09;0.77;;;0.77;;
37001;SDS011;22913;51.910;8.374;2022-12-29T06:11:56;1.10;;;0.83;;
37001;SDS011;22913;51.910;8.374;2022-12-29T06:14:41;0.70;;;0.70;;
37001;SDS011;22913;51.910;8.374;2022-12-29T06:17:27;2.10;;;0.87;;
37001;SDS011;22913;51.910;8.374;2022-12-29T06:20:13;0.67;;;0.67;;
37001;SDS011;22913;51.910;8.374;2022-12-29T06:22:59;0.80;;;0.80;;
37001;SDS011;22913;51.910;8.374;2022-12-29T06:25:46;0.67;;;0.60;;
37001;SDS011;22913;51.910;8.374;2022-12-29T06:28:34;0.73;;;0.67;;
37001;SDS011;22913;51.910;8.374;2022-12-29T06:31:20;1.00;;;1.00;;
37001;SDS011;22913;51.910;8.374;2022-12-29T06:34:06;1.23;;;0.70;;
37001;SDS011;22913;51.910;8.374;2022-12-29T06:36:52;0.87;;;0.77;;
37001;SDS011;22913;51.910;8.374;2022-12-29T06:39:38;1.70;;;0.93;;
37001;SDS011;22913;51.910;8.374;2022-12-29T06:42:24;2.67;;;1.10;;
37001;SDS011;22913;51.910;8.374;2022-12-29T06:45:11;0.80;;;0.80;;
37001;SDS011;22913;51.910;8.374;2022-12-29T06:47:57;1.00;;;1.00;;
37001;SDS011;22913;51.910;8.374;2022-12-29T06:50:43;1.00;;;0.87;;
37001;SDS011;22913;51.910;8.374;2022-12-29T06:53:28;0.90;;;0.90;;
37001;SDS011;22913;51.910;8.374;2022-12-29T06:56:14;1.97;;;1.00;;
37001;SDS011;22913;51.910;8.374;2022-12-29T06:59:00;0.87;;;0.80;;
37001;SDS011;22913;51.910;8.374;2022-12-29T07:01:47;1.53;;;1.30;;
37001;SDS011;22913;51.910;8.374;2022-12-29T07:04:33;1.57;;;0.83;;
37001;SDS011;22913;51.910;8.374;2022-12-29T07:07:19;1.03;;;0.90;;
37001;SDS011;22913;51.910;8.374;2022-12-29T07:10:05;1.27;;;1.00;;
37001;SDS011;22913;51.910;8.374;2022-12-29T07:12:51;0.70;;;0.67;;
37001;SDS011;22913;51.910;8.374;2022-12-29T07:18:28;1.20;;;1.10;;
37001;SDS011;22913;51.910;8.374;2022-12-29T07:21:14;1.73;;;0.80;;
37001;SDS011;22913;51.910;8.374;2022-12-29T07:24:00;2.43;;;0.90;;
37001;SDS011;22913;51.910;8.374;2022-12-29T07:26:46;1.20;;;0.90;;
37001;SDS011;22913;51.910;8.374;2022-12-29T07:29:31;1.40;;;1.30;;
37001;SDS011;22913;51.910;8.374;2022-12-29T07:32:17;1.40;;;1.30;;
37001;SDS011;22913;51.910;8.374;2022-12-29T07:35:04;2.97;;;1.30;;
37001;SDS011;22913;51.910;8.374;2022-12-29T07:37:50;2.43;;;1.37;;
37001;SDS011;22913;51.910;8.374;2022-12-29T07:40:36;2.53;;;1.10;;
37001;SDS011;22913;51.910;8.374;2022-12-29T07:43:22;2.63;;;1.27;;
37001;SDS011;22913;51.910;8.374;2022-12-29T07:46:07;1.50;;;1.33;;
37001;SDS011;22913;51.910;8.374;2022-12-29T07:48:53;2.47;;;1.37;;
37001;SDS011;22913;51.910;8.374;2022-12-29T07:51:40;2.27;;;1.30;;
37001;SDS011;22913;51.910;8.374;2022-12-29T07:54:26;1.47;;;1.10;;
37001;SDS011;22913;51.910;8.374;2022-12-29T07:57:12;3.60;;;1.30;;
37001;SDS011;22913;51.910;8.374;2022-12-29T07:59:58;1.93;;;1.17;;
37001;SDS011;22913;51.910;8.374;2022-12-29T08:02:43;2.20;;;1.53;;
37001;SDS011;22913;51.910;8.374;2022-12-29T08:05:29;2.40;;;1.40;;
37001;SDS011;22913;51.910;8.374;2022-12-29T08:08:16;1.37;;;1.23;;
37001;SDS011;22913;51.910;8.374;2022-12-29T08:11:02;2.00;;;1.17;;
37001;SDS011;22913;51.910;8.374;2022-12-29T08:13:48;1.97;;;1.67;;
37001;SDS011;22913;51.910;8.374;2022-12-29T08:16:34;2.07;;;1.00;;
37001;SDS011;22913;51.910;8.374;2022-12-29T08:19:19;2.53;;;1.30;;
37001;SDS011;22913;51.910;8.374;2022-12-29T08:22:05;2.23;;;1.23;;
37001;SDS011;22913;51.910;8.374;2022-12-29T08:24:52;2.37;;;1.37;;
37001;SDS011;22913;51.910;8.374;2022-12-29T08:27:37;2.73;;;1.43;;
37001;SDS011;22913;51.910;8.374;2022-12-29T08:30:23;3.53;;;1.57;;
37001;SDS011;22913;51.910;8.374;2022-12-29T08:33:09;2.57;;;1.50;;
37001;SDS011;22913;51.910;8.374;2022-12-29T08:35:59;2.10;;;1.17;;
37001;SDS011;22913;51.910;8.374;2022-12-29T08:38:45;1.40;;;1.00;;
37001;SDS011;22913;51.910;8.374;2022-12-29T08:41:32;3.97;;;1.57;;
37001;SDS011;22913;51.910;8.374;2022-12-29T08:44:18;2.90;;;1.60;;
37001;SDS011;22913;51.910;8.374;2022-12-29T08:47:04;1.90;;;1.20;;
37001;SDS011;22913;51.910;8.374;2022-12-29T08:49:50;1.63;;;1.20;;
37001;SDS011;22913;51.910;8.374;2022-12-29T08:52:36;3.97;;;1.40;;
37001;SDS011;22913;51.910;8.374;2022-12-29T08:55:22;3.73;;;1.90;;
37001;SDS011;22913;51.910;8.374;2022-12-29T08:58:09;5.47;;;1.80;;
37001;SDS011;22913;51.910;8.374;2022-12-29T09:00:58;2.10;;;1.37;;
37001;SDS011;22913;51.910;8.374;2022-12-29T09:03:44;2.93;;;1.70;;
37001;SDS011;22913;51.910;8.374;2022-12-29T09:06:30;2.77;;;1.70;;
37001;SDS011;22913;51.910;8.374;2022-12-29T09:09:16;2.00;;;1.77;;
37001;SDS011;22913;51.910;8.374;2022-12-29T09:12:02;3.67;;;2.10;;
37001;SDS011;22913;51.910;8.374;2022-12-29T09:14:50;2.03;;;1.50;;
37001;SDS011;22913;51.910;8.374;2022-12-29T09:17:35;3.27;;;1.47;;
37001;SDS011;22913;51.910;8.374;2022-12-29T09:20:28;3.13;;;1.93;;
37001;SDS011;22913;51.910;8.374;2022-12-29T09:23:14;2.40;;;1.20;;
37001;SDS011;22913;51.910;8.374;2022-12-29T09:26:00;3.23;;;1.50;;
37001;SDS011;22913;51.910;8.374;2022-12-29T09:28:45;2.50;;;1.30;;
37001;SDS011;22913;51.910;8.374;2022-12-29T09:31:32;2.13;;;1.40;;
37001;SDS011;22913;51.910;8.374;2022-12-29T09:34:18;4.50;;;1.37;;
37001;SDS011;22913;51.910;8.374;2022-12-29T09:37:03;3.47;;;1.40;;
37001;SDS011;22913;51.910;8.374;2022-12-29T09:39:49;5.10;;;1.50;;
37001;SDS011;22913;51.910;8.374;2022-12-29T09:42:35;4.63;;;1.70;;
37001;SDS011;22913;51.910;8.374;2022-12-29T09:45:26;4.77;;;1.50;;
37001;SDS011;22913;51.910;8.374;2022-12-29T09:48:18;5.67;;;1.73;;
37001;SDS011;22913;51.910;8.374;2022-12-29T09:51:08;5.00;;;1.97;;
37001;SDS011;22913;51.910;8.374;2022-12-29T09:53:58;4.07;;;1.93;;
37001;SDS011;22913;51.910;8.374;2022-12-29T09:56:47;3.43;;;1.60;;
37001;SDS011;22913;51.910;8.374;2022-12-29T09:59:36;3.23;;;1.50;;
37001;SDS011;22913;51.910;8.374;2022-12-29T10:02:30;3.37;;;1.73;;
37001;SDS011;22913;51.910;8.374;2022-12-29T10:05:29;4.30;;;1.67;;
37001;SDS011;22913;51.910;8.374;2022-12-29T10:08:26;2.80;;;1.47;;
37001;SDS011;22913;51.910;8.374;2022-12-29T10:11:23;3.77;;;1.57;;
37001;SDS011;22913;51.910;8.374;2022-12-29T10:14:26;4.80;;;1.60;;
37001;SDS011;22913;51.910;8.374;2022-12-29T10:17:26;2.70;;;1.67;;
37001;SDS011;22913;51.910;8.374;2022-12-29T10:20:25;3.57;;;1.70;;
37001;SDS011;22913;51.910;8.374;2022-12-29T10:23:25;3.90;;;1.63;;
37001;SDS011;22913;51.910;8.374;2022-12-29T10:26:15;4.60;;;1.83;;
37001;SDS011;22913;51.910;8.374;2022-12-29T10:29:03;2.97;;;1.47;;
37001;SDS011;22913;51.910;8.374;2022-12-29T10:31:54;4.83;;;1.50;;
37001;SDS011;22913;51.910;8.374;2022-12-29T10:37:41;5.50;;;1.50;;
37001;SDS011;22913;51.910;8.374;2022-12-29T10:40:40;3.30;;;1.20;;
37001;SDS011;22913;51.910;8.374;2022-12-29T10:43:33;3.50;;;1.27;;
37001;SDS011;22913;51.910;8.374;2022-12-29T10:46:25;3.63;;;1.77;;
37001;SDS011;22913;51.910;8.374;2022-12-29T10:49:14;2.53;;;1.83;;
37001;SDS011;22913;51.910;8.374;2022-12-29T10:52:02;6.07;;;1.40;;
37001;SDS011;22913;51.910;8.374;2022-12-29T10:54:51;4.53;;;1.50;;
37001;SDS011;22913;51.910;8.374;2022-12-29T10:57:41;5.50;;;1.67;;
37001;SDS011;22913;51.910;8.374;2022-12-29T11:00:28;3.43;;;1.50;;
37001;SDS011;22913;51.910;8.374;2022-12-29T11:06:34;3.70;;;1.40;;
37001;SDS011;22913;51.910;8.374;2022-12-29T11:09:21;2.90;;;1.30;;
37001;SDS011;22913;51.910;8.374;2022-12-29T11:12:20;2.83;;;1.50;;
37001;SDS011;22913;51.910;8.374;2022-12-29T11:15:11;4.87;;;1.90;;
37001;SDS011;22913;51.910;8.374;2022-12-29T11:17:59;4.50;;;1.57;;
37001;SDS011;22913;51.910;8.374;2022-12-29T11:20:45;3.90;;;1.43;;
37001;SDS011;22913;51.910;8.374;2022-12-29T11:23:31;4.27;;;1.50;;
37001;SDS011;22913;51.910;8.374;2022-12-29T11:26:19;3.80;;;1.50;;
37001;SDS011;22913;51.910;8.374;2022-12-29T11:29:20;3.17;;;1.40;;
37001;SDS011;22913;51.910;8.374;2022-12-29T11:32:10;3.80;;;1.50;;
37001;SDS011;22913;51.910;8.374;2022-12-29T11:34:58;2.93;;;1.63;;
37001;SDS011;22913;51.910;8.374;2022-12-29T11:37:44;5.33;;;1.63;;
37001;SDS011;22913;51.910;8.374;2022-12-29T11:40:30;4.80;;;2.00;;
37001;SDS011;22913;51.910;8.374;2022-12-29T11:43:23;6.20;;;1.70;;
37001;SDS011;22913;51.910;8.374;2022-12-29T11:46:16;3.40;;;1.60;;
37001;SDS011;22913;51.910;8.374;2022-12-29T11:49:05;3.17;;;1.70;;
37001;SDS011;22913;51.910;8.374;2022-12-29T11:51:51;4.63;;;1.77;;
37001;SDS011;22913;51.910;8.374;2022-12-29T11:54:40;4.17;;;1.60;;
37001;SDS011;22913;51.910;8.374;2022-12-29T11:57:27;5.03;;;1.80;;
37001;SDS011;22913;51.910;8.374;2022-12-29T12:00:18;5.43;;;1.60;;
37001;SDS011;22913;51.910;8.374;2022-12-29T12:03:07;4.40;;;1.63;;
37001;SDS011;22913;51.910;8.374;2022-12-29T12:05:58;2.80;;;1.23;;
37001;SDS011;22913;51.910;8.374;2022-12-29T12:08:47;7.27;;;1.80;;
37001;SDS011;22913;51.910;8.374;2022-12-29T12:11:38;1.97;;;1.20;;
37001;SDS011;22913;51.910;8.374;2022-12-29T12:14:27;2.53;;;1.50;;
37001;SDS011;22913;51.910;8.374;2022-12-29T12:17:24;6.33;;;1.70;;
37001;SDS011;22913;51.910;8.374;2022-12-29T12:20:22;4.40;;;1.37;;
37001;SDS011;22913;51.910;8.374;2022-12-29T12:23:14;3.53;;;1.60;;
37001;SDS011;22913;51.910;8.374;2022-12-29T12:26:14;3.20;;;1.40;;
37001;SDS011;22913;51.910;8.374;2022-12-29T12:29:04;5.03;;;1.57;;
37001;SDS011;22913;51.910;8.374;2022-12-29T12:31:55;6.07;;;2.07;;
37001;SDS011;22913;51.910;8.374;2022-12-29T12:34:46;1.83;;;1.43;;
37001;SDS011;22913;51.910;8.374;2022-12-29T12:37:39;3.83;;;1.57;;
37001;SDS011;22913;51.910;8.374;2022-12-29T12:40:44;5.50;;;1.73;;
37001;SDS011;22913;51.910;8.374;2022-12-29T12:43:44;6.03;;;1.77;;
37001;SDS011;22913;51.910;8.374;2022-12-29T12:46:44;2.90;;;1.70;;
37001;SDS011;22913;51.910;8.374;2022-12-29T12:53:28;1.87;;;1.50;;
37001;SDS011;22913;51.910;8.374;2022-12-29T12:56:44;5.10;;;1.80;;
37001;SDS011;22913;51.910;8.374;2022-12-29T12:59:38;4.47;;;2.03;;
37001;SDS011;22913;51.910;8.374;2022-12-29T13:02:34;4.67;;;1.70;;
37001;SDS011;22913;51.910;8.374;2022-12-29T13:05:33;2.90;;;1.43;;
37001;SDS011;22913;51.910;8.374;2022-12-29T13:08:33;3.00;;;1.70;;
37001;SDS011;22913;51.910;8.374;2022-12-29T13:11:33;3.47;;;1.37;;
37001;SDS011;22913;51.910;8.374;2022-12-29T13:14:32;2.10;;;1.50;;
37001;SDS011;22913;51.910;8.374;2022-12-29T13:17:26;5.40;;;1.57;;
37001;SDS011;22913;51.910;8.374;2022-12-29T13:20:18;4.13;;;1.80;;
37001;SDS011;22913;51.910;8.374;2022-12-29T13:23:12;7.43;;;1.90;;
37001;SDS011;22913;51.910;8.374;2022-12-29T13:26:09;2.10;;;1.63;;
37001;SDS011;22913;51.910;8.374;2022-12-29T13:29:03;4.87;;;1.80;;
37001;SDS011;22913;51.910;8.374;2022-12-29T13:32:00;4.37;;;1.87;;
37001;SDS011;22913;51.910;8.374;2022-12-29T13:35:02;7.10;;;2.37;;
37001;SDS011;22913;51.910;8.374;2022-12-29T13:37:57;3.90;;;1.80;;
37001;SDS011;22913;51.910;8.374;2022-12-29T13:40:49;4.47;;;1.63;;
37001;SDS011;22913;51.910;8.374;2022-12-29T13:43:39;5.50;;;2.10;;
37001;SDS011;22913;51.910;8.374;2022-12-29T13:46:27;5.30;;;1.57;;
37001;SDS011;22913;51.910;8.374;2022-12-29T13:49:17;5.33;;;1.83;;
37001;SDS011;22913;51.910;8.374;2022-12-29T13:52:05;4.10;;;2.03;;
37001;SDS011;22913;51.910;8.374;2022-12-29T13:55:01;4.30;;;2.00;;
37001;SDS011;22913;51.910;8.374;2022-12-29T13:58:00;5.57;;;1.80;;
37001;SDS011;22913;51.910;8.374;2022-12-29T14:00:51;4.43;;;2.00;;
37001;SDS011;22913;51.910;8.374;2022-12-29T14:03:45;6.20;;;2.30;;
37001;SDS011;22913;51.910;8.374;2022-12-29T14:06:33;3.10;;;1.70;;
37001;SDS011;22913;51.910;8.374;2022-12-29T14:09:43;3.53;;;1.70;;
37001;SDS011;22913;51.910;8.374;2022-12-29T14:12:32;4.07;;;2.03;;
37001;SDS011;22913;51.910;8.374;2022-12-29T14:15:22;4.73;;;2.07;;
37001;SDS011;22913;51.910;8.374;2022-12-29T14:18:14;6.43;;;2.50;;
37001;SDS011;22913;51.910;8.374;2022-12-29T14:21:03;6.53;;;1.90;;
37001;SDS011;22913;51.910;8.374;2022-12-29T14:23:54;3.13;;;1.77;;
37001;SDS011;22913;51.910;8.374;2022-12-29T14:26:45;3.20;;;1.60;;
37001;SDS011;22913;51.910;8.374;2022-12-29T14:29:43;4.63;;;2.13;;
37001;SDS011;22913;51.910;8.374;2022-12-29T14:32:36;5.07;;;1.97;;
37001;SDS011;22913;51.910;8.374;2022-12-29T14:35:38;4.80;;;1.70;;
37001;SDS011;22913;51.910;8.374;2022-12-29T14:38:26;5.80;;;2.10;;
37001;SDS011;22913;51.910;8.374;2022-12-29T14:41:24;8.27;;;2.10;;
37001;SDS011;22913;51.910;8.374;2022-12-29T14:44:16;5.30;;;1.90;;
37001;SDS011;22913;51.910;8.374;2022-12-29T14:47:04;4.73;;;1.73;;
37001;SDS011;22913;51.910;8.374;2022-12-29T14:49:51;4.27;;;2.03;;
37001;SDS011;22913;51.910;8.374;2022-12-29T14:52:42;4.33;;;1.83;;
37001;SDS011;22913;51.910;8.374;2022-12-29T14:55:36;5.87;;;2.27;;
37001;SDS011;22913;51.910;8.374;2022-12-29T14:58:26;3.20;;;1.87;;
37001;SDS011;22913;51.910;8.374;2022-12-29T15:01:16;4.93;;;1.90;;
37001;SDS011;22913;51.910;8.374;2022-12-29T15:04:13;3.27;;;1.83;;
37001;SDS011;22913;51.910;8.374;2022-12-29T15:07:02;5.70;;;2.00;;
37001;SDS011;22913;51.910;8.374;2022-12-29T15:09:56;6.03;;;2.40;;
37001;SDS011;22913;51.910;8.374;2022-12-29T15:12:49;5.83;;;1.87;;
37001;SDS011;22913;51.910;8.374;2022-12-29T15:15:38;5.17;;;2.10;;
37001;SDS011;22913;51.910;8.374;2022-12-29T15:18:25;3.13;;;1.60;;
37001;SDS011;22913;51.910;8.374;2022-12-29T15:21:14;5.27;;;1.67;;
37001;SDS011;22913;51.910;8.374;2022-12-29T15:24:00;6.13;;;2.00;;
37001;SDS011;22913;51.910;8.374;2022-12-29T15:26:50;4.97;;;2.07;;
37001;SDS011;22913;51.910;8.374;2022-12-29T15:29:38;5.27;;;2.20;;
37001;SDS011;22913;51.910;8.374;2022-12-29T15:32:26;4.30;;;1.80;;
37001;SDS011;22913;51.910;8.374;2022-12-29T15:35:30;5.67;;;1.73;;
37001;SDS011;22913;51.910;8.374;2022-12-29T15:38:21;5.50;;;2.13;;
37001;SDS011;22913;51.910;8.374;2022-12-29T15:41:14;3.43;;;1.87;;
37001;SDS011;22913;51.910;8.374;2022-12-29T15:44:13;6.53;;;1.67;;
37001;SDS011;22913;51.910;8.374;2022-12-29T15:47:02;6.03;;;1.97;;
37001;SDS011;22913;51.910;8.374;2022-12-29T15:49:49;6.40;;;1.80;;
37001;SDS011;22913;51.910;8.374;2022-12-29T15:52:37;3.93;;;1.67;;
37001;SDS011;22913;51.910;8.374;2022-12-29T15:55:25;6.43;;;2.03;;
37001;SDS011;22913;51.910;8.374;2022-12-29T15:58:20;6.50;;;1.83;;
37001;SDS011;22913;51.910;8.374;2022-12-29T16:01:15;4.40;;;1.80;;
37001;SDS011;22913;51.910;8.374;2022-12-29T16:04:03;7.30;;;1.77;;
37001;SDS011;22913;51.910;8.374;2022-12-29T16:06:54;6.30;;;2.30;;
37001;SDS011;22913;51.910;8.374;2022-12-29T16:09:42;4.10;;;1.80;;
37001;SDS011;22913;51.910;8.374;2022-12-29T16:12:30;4.70;;;2.00;;
37001;SDS011;22913;51.910;8.374;2022-12-29T16:15:18;6.07;;;2.17;;
37001;SDS011;22913;51.910;8.374;2022-12-29T16:18:11;6.63;;;1.97;;
37001;SDS011;22913;51.910;8.374;2022-12-29T16:21:13;4.90;;;2.17;;
37001;SDS011;22913;51.910;8.374;2022-12-29T16:24:04;6.90;;;1.90;;
37001;SDS011;22913;51.910;8.374;2022-12-29T16:26:54;5.67;;;2.13;;
37001;SDS011;22913;51.910;8.374;2022-12-29T16:29:44;4.80;;;1.80;;
37001;SDS011;22913;51.910;8.374;2022-12-29T16:32:30;6.70;;;1.90;;
37001;SDS011;22913;51.910;8.374;2022-12-29T16:35:18;5.00;;;1.70;;
37001;SDS011;22913;51.910;8.374;2022-12-29T16:38:07;3.67;;;1.40;;
37001;SDS011;22913;51.910;8.374;2022-12-29T16:40:59;5.07;;;1.80;;
37001;SDS011;22913;51.910;8.374;2022-12-29T16:43:46;3.27;;;1.37;;
37001;SDS011;22913;51.910;8.374;2022-12-29T16:46:31;5.10;;;2.20;;
37001;SDS011;22913;51.910;8.374;2022-12-29T16:49:17;4.10;;;1.80;;
37001;SDS011;22913;51.910;8.374;2022-12-29T16:52:12;4.47;;;2.37;;
37001;SDS011;22913;51.910;8.374;2022-12-29T16:55:01;4.37;;;1.80;;
37001;SDS011;22913;51.910;8.374;2022-12-29T16:57:48;4.90;;;1.70;;
37001;SDS011;22913;51.910;8.374;2022-12-29T17:00:37;2.40;;;1.30;;
37001;SDS011;22913;51.910;8.374;2022-12-29T17:03:22;4.73;;;1.77;;
37001;SDS011;22913;51.910;8.374;2022-12-29T17:06:14;3.23;;;1.53;;
37001;SDS011;22913;51.910;8.374;2022-12-29T17:09:01;2.47;;;1.30;;
37001;SDS011;22913;51.910;8.374;2022-12-29T17:11:48;5.73;;;1.87;;
37001;SDS011;22913;51.910;8.374;2022-12-29T17:14:42;3.87;;;1.73;;
37001;SDS011;22913;51.910;8.374;2022-12-29T17:17:30;4.57;;;1.70;;
37001;SDS011;22913;51.910;8.374;2022-12-29T17:20:19;7.80;;;1.67;;